Jurien, Australia
Current Conditions -  °F | °C
As of 7:30 PM on Saturday 25 Oct 2014 (Local Time) from YGEL Reporting Station
Clear Clear  
Wind Chill: 64°   Ceiling: Unl
Heat Index: 64°   Visibility: 6mi
Dew Point: 55°   Wind: 7mph
Humidity: 73%   Direction: 200°SSW
Pressure: 30.12"   Gusts: NA
Location:  30.31°S, 115.03°E
Report Text: YGEL 251130Z AUTO 20006KT 9999 // NCD 18/13 Q1020
Loading
Personal Weather Stations






























Interactive Weather Map
Tropical Storm Tracking
New forecast layout! Learn more

10-Day Weather Forecast

Advertisements
Track Severe Weather on mobile